sensor_id;sensor_type;location;lat;lon;timestamp;P1;durP1;ratioP1;P2;durP2;ratioP2
64903;SDS011;51401;48.882;12.598;2023-04-10T00:00:05;12.48;;;8.45;;
64903;SDS011;51401;48.882;12.598;2023-04-10T00:02:31;13.20;;;9.68;;
64903;SDS011;51401;48.882;12.598;2023-04-10T00:04:57;14.35;;;9.05;;
64903;SDS011;51401;48.882;12.598;2023-04-10T00:07:23;12.43;;;8.23;;
64903;SDS011;51401;48.882;12.598;2023-04-10T00:09:48;12.63;;;8.57;;
64903;SDS011;51401;48.882;12.598;2023-04-10T00:12:14;11.93;;;7.85;;
64903;SDS011;51401;48.882;12.598;2023-04-10T00:14:39;15.23;;;8.90;;
64903;SDS011;51401;48.882;12.598;2023-04-10T00:17:05;11.65;;;8.68;;
64903;SDS011;51401;48.882;12.598;2023-04-10T00:19:30;14.90;;;8.90;;
64903;SDS011;51401;48.882;12.598;2023-04-10T00:21:56;14.45;;;8.90;;
64903;SDS011;51401;48.882;12.598;2023-04-10T00:24:21;14.27;;;9.18;;
64903;SDS011;51401;48.882;12.598;2023-04-10T00:26:46;13.98;;;9.13;;
64903;SDS011;51401;48.882;12.598;2023-04-10T00:29:12;12.93;;;8.32;;
64903;SDS011;51401;48.882;12.598;2023-04-10T00:31:37;13.60;;;9.18;;
64903;SDS011;51401;48.882;12.598;2023-04-10T00:34:02;11.48;;;8.13;;
64903;SDS011;51401;48.882;12.598;2023-04-10T00:36:28;12.80;;;8.85;;
64903;SDS011;51401;48.882;12.598;2023-04-10T00:38:53;13.05;;;8.57;;
64903;SDS011;51401;48.882;12.598;2023-04-10T00:41:18;13.77;;;7.90;;
64903;SDS011;51401;48.882;12.598;2023-04-10T00:43:44;14.25;;;9.15;;
64903;SDS011;51401;48.882;12.598;2023-04-10T00:46:09;13.05;;;8.43;;
64903;SDS011;51401;48.882;12.598;2023-04-10T00:48:35;14.23;;;8.80;;
64903;SDS011;51401;48.882;12.598;2023-04-10T00:51:01;12.60;;;8.43;;
64903;SDS011;51401;48.882;12.598;2023-04-10T00:53:27;13.25;;;8.02;;
64903;SDS011;51401;48.882;12.598;2023-04-10T00:55:53;13.02;;;8.57;;
64903;SDS011;51401;48.882;12.598;2023-04-10T00:58:20;15.55;;;9.25;;
64903;SDS011;51401;48.882;12.598;2023-04-10T01:00:46;14.40;;;9.45;;
64903;SDS011;51401;48.882;12.598;2023-04-10T01:03:12;13.07;;;9.10;;
64903;SDS011;51401;48.882;12.598;2023-04-10T01:05:42;12.05;;;7.95;;
64903;SDS011;51401;48.882;12.598;2023-04-10T01:11:42;14.45;;;9.43;;
64903;SDS011;51401;48.882;12.598;2023-04-10T01:14:15;12.70;;;8.13;;
64903;SDS011;51401;48.882;12.598;2023-04-10T01:16:56;12.65;;;8.48;;
64903;SDS011;51401;48.882;12.598;2023-04-10T01:22:25;16.45;;;9.75;;
64903;SDS011;51401;48.882;12.598;2023-04-10T01:25:00;16.13;;;9.47;;
64903;SDS011;51401;48.882;12.598;2023-04-10T01:30:56;15.05;;;9.32;;
64903;SDS011;51401;48.882;12.598;2023-04-10T01:33:25;15.75;;;8.52;;
64903;SDS011;51401;48.882;12.598;2023-04-10T01:36:07;15.18;;;9.55;;
64903;SDS011;51401;48.882;12.598;2023-04-10T01:38:34;13.02;;;9.15;;
64903;SDS011;51401;48.882;12.598;2023-04-10T01:41:02;17.17;;;9.52;;
64903;SDS011;51401;48.882;12.598;2023-04-10T01:43:29;18.55;;;10.10;;
64903;SDS011;51401;48.882;12.598;2023-04-10T01:45:56;18.55;;;10.82;;
64903;SDS011;51401;48.882;12.598;2023-04-10T01:48:22;16.13;;;9.98;;
64903;SDS011;51401;48.882;12.598;2023-04-10T01:50:48;16.92;;;9.43;;
64903;SDS011;51401;48.882;12.598;2023-04-10T01:53:15;17.73;;;10.30;;
64903;SDS011;51401;48.882;12.598;2023-04-10T01:55:41;14.77;;;10.05;;
64903;SDS011;51401;48.882;12.598;2023-04-10T01:58:07;15.88;;;9.50;;
64903;SDS011;51401;48.882;12.598;2023-04-10T02:00:36;16.50;;;10.32;;
64903;SDS011;51401;48.882;12.598;2023-04-10T02:03:03;13.73;;;9.45;;
64903;SDS011;51401;48.882;12.598;2023-04-10T02:05:30;13.55;;;8.50;;
64903;SDS011;51401;48.882;12.598;2023-04-10T02:08:13;13.73;;;9.68;;
64903;SDS011;51401;48.882;12.598;2023-04-10T02:10:53;15.35;;;10.23;;
64903;SDS011;51401;48.882;12.598;2023-04-10T02:13:22;17.38;;;11.48;;
64903;SDS011;51401;48.882;12.598;2023-04-10T02:15:51;16.58;;;10.35;;
64903;SDS011;51401;48.882;12.598;2023-04-10T02:18:21;18.30;;;10.73;;
64903;SDS011;51401;48.882;12.598;2023-04-10T02:20:47;16.52;;;9.77;;
64903;SDS011;51401;48.882;12.598;2023-04-10T02:23:14;15.50;;;9.63;;
64903;SDS011;51401;48.882;12.598;2023-04-10T02:25:41;17.63;;;11.18;;
64903;SDS011;51401;48.882;12.598;2023-04-10T02:28:06;16.58;;;9.93;;
64903;SDS011;51401;48.882;12.598;2023-04-10T02:30:32;18.42;;;9.70;;
64903;SDS011;51401;48.882;12.598;2023-04-10T02:32:58;17.67;;;11.00;;
64903;SDS011;51401;48.882;12.598;2023-04-10T02:35:23;16.17;;;10.05;;
64903;SDS011;51401;48.882;12.598;2023-04-10T02:37:50;15.40;;;9.70;;
64903;SDS011;51401;48.882;12.598;2023-04-10T02:40:15;15.85;;;10.48;;
64903;SDS011;51401;48.882;12.598;2023-04-10T02:42:40;17.75;;;10.18;;
64903;SDS011;51401;48.882;12.598;2023-04-10T02:45:06;15.73;;;9.55;;
64903;SDS011;51401;48.882;12.598;2023-04-10T02:47:32;13.55;;;8.93;;
64903;SDS011;51401;48.882;12.598;2023-04-10T02:49:58;14.40;;;8.25;;
64903;SDS011;51401;48.882;12.598;2023-04-10T02:52:23;16.52;;;9.45;;
64903;SDS011;51401;48.882;12.598;2023-04-10T02:54:48;14.82;;;9.43;;
64903;SDS011;51401;48.882;12.598;2023-04-10T02:57:14;13.25;;;9.13;;
64903;SDS011;51401;48.882;12.598;2023-04-10T02:59:40;14.45;;;8.63;;
64903;SDS011;51401;48.882;12.598;2023-04-10T03:02:05;14.00;;;9.10;;
64903;SDS011;51401;48.882;12.598;2023-04-10T03:04:31;15.07;;;9.32;;
64903;SDS011;51401;48.882;12.598;2023-04-10T03:06:56;14.80;;;10.18;;
64903;SDS011;51401;48.882;12.598;2023-04-10T03:09:22;16.30;;;9.48;;
64903;SDS011;51401;48.882;12.598;2023-04-10T03:11:47;14.82;;;9.48;;
64903;SDS011;51401;48.882;12.598;2023-04-10T03:14:12;15.90;;;9.93;;
64903;SDS011;51401;48.882;12.598;2023-04-10T03:16:38;16.42;;;9.55;;
64903;SDS011;51401;48.882;12.598;2023-04-10T03:19:03;18.35;;;11.10;;
64903;SDS011;51401;48.882;12.598;2023-04-10T03:21:28;18.02;;;11.25;;
64903;SDS011;51401;48.882;12.598;2023-04-10T03:23:54;18.48;;;11.13;;
64903;SDS011;51401;48.882;12.598;2023-04-10T03:26:19;17.48;;;11.07;;
64903;SDS011;51401;48.882;12.598;2023-04-10T03:28:45;17.83;;;11.00;;
64903;SDS011;51401;48.882;12.598;2023-04-10T03:31:10;18.23;;;11.05;;
64903;SDS011;51401;48.882;12.598;2023-04-10T03:33:36;16.20;;;9.93;;
64903;SDS011;51401;48.882;12.598;2023-04-10T03:36:02;15.60;;;9.65;;
64903;SDS011;51401;48.882;12.598;2023-04-10T03:38:28;18.27;;;11.32;;
64903;SDS011;51401;48.882;12.598;2023-04-10T03:40:53;16.27;;;10.15;;
64903;SDS011;51401;48.882;12.598;2023-04-10T03:43:18;16.08;;;10.20;;
64903;SDS011;51401;48.882;12.598;2023-04-10T03:45:44;19.77;;;11.30;;
64903;SDS011;51401;48.882;12.598;2023-04-10T03:48:09;20.33;;;11.00;;
64903;SDS011;51401;48.882;12.598;2023-04-10T03:50:35;18.50;;;11.23;;
64903;SDS011;51401;48.882;12.598;2023-04-10T03:53:00;18.90;;;11.20;;
64903;SDS011;51401;48.882;12.598;2023-04-10T03:55:25;16.50;;;10.23;;
64903;SDS011;51401;48.882;12.598;2023-04-10T03:57:50;15.75;;;10.02;;
64903;SDS011;51401;48.882;12.598;2023-04-10T04:00:16;16.33;;;9.93;;
64903;SDS011;51401;48.882;12.598;2023-04-10T04:02:42;18.75;;;10.95;;
64903;SDS011;51401;48.882;12.598;2023-04-10T04:05:07;17.63;;;11.25;;
64903;SDS011;51401;48.882;12.598;2023-04-10T04:07:33;17.85;;;10.70;;
64903;SDS011;51401;48.882;12.598;2023-04-10T04:09:58;18.33;;;11.25;;
64903;SDS011;51401;48.882;12.598;2023-04-10T04:12:24;20.15;;;12.15;;
64903;SDS011;51401;48.882;12.598;2023-04-10T04:14:50;21.85;;;12.57;;
64903;SDS011;51401;48.882;12.598;2023-04-10T04:17:15;18.63;;;11.32;;
64903;SDS011;51401;48.882;12.598;2023-04-10T04:19:41;19.02;;;11.13;;
64903;SDS011;51401;48.882;12.598;2023-04-10T04:22:06;21.77;;;12.43;;
64903;SDS011;51401;48.882;12.598;2023-04-10T04:24:31;17.58;;;11.27;;
64903;SDS011;51401;48.882;12.598;2023-04-10T04:26:57;15.38;;;10.30;;
64903;SDS011;51401;48.882;12.598;2023-04-10T04:29:22;19.15;;;10.95;;
64903;SDS011;51401;48.882;12.598;2023-04-10T04:31:47;18.52;;;11.48;;
64903;SDS011;51401;48.882;12.598;2023-04-10T04:34:13;17.55;;;10.00;;
64903;SDS011;51401;48.882;12.598;2023-04-10T04:36:38;18.88;;;10.95;;
64903;SDS011;51401;48.882;12.598;2023-04-10T04:39:03;17.00;;;11.35;;
64903;SDS011;51401;48.882;12.598;2023-04-10T04:41:29;17.83;;;11.35;;
64903;SDS011;51401;48.882;12.598;2023-04-10T04:43:56;17.80;;;10.70;;
64903;SDS011;51401;48.882;12.598;2023-04-10T04:46:25;16.50;;;10.60;;
64903;SDS011;51401;48.882;12.598;2023-04-10T04:48:50;19.35;;;11.57;;
64903;SDS011;51401;48.882;12.598;2023-04-10T04:51:15;21.73;;;11.68;;
64903;SDS011;51401;48.882;12.598;2023-04-10T04:53:41;19.55;;;11.10;;
64903;SDS011;51401;48.882;12.598;2023-04-10T04:56:06;18.23;;;11.10;;
64903;SDS011;51401;48.882;12.598;2023-04-10T04:58:31;18.13;;;11.40;;
64903;SDS011;51401;48.882;12.598;2023-04-10T05:00:57;17.88;;;10.32;;
64903;SDS011;51401;48.882;12.598;2023-04-10T05:03:22;17.13;;;11.00;;
64903;SDS011;51401;48.882;12.598;2023-04-10T05:05:47;18.45;;;11.13;;
64903;SDS011;51401;48.882;12.598;2023-04-10T05:08:13;16.58;;;10.20;;
64903;SDS011;51401;48.882;12.598;2023-04-10T05:10:38;18.10;;;10.93;;
64903;SDS011;51401;48.882;12.598;2023-04-10T05:13:03;16.77;;;10.30;;
64903;SDS011;51401;48.882;12.598;2023-04-10T05:15:28;18.98;;;12.43;;
64903;SDS011;51401;48.882;12.598;2023-04-10T05:17:54;17.67;;;10.68;;
64903;SDS011;51401;48.882;12.598;2023-04-10T05:20:19;15.82;;;11.00;;
64903;SDS011;51401;48.882;12.598;2023-04-10T05:22:46;19.35;;;10.90;;
64903;SDS011;51401;48.882;12.598;2023-04-10T05:25:11;18.27;;;11.15;;
64903;SDS011;51401;48.882;12.598;2023-04-10T05:27:37;21.20;;;12.15;;
64903;SDS011;51401;48.882;12.598;2023-04-10T05:30:02;17.70;;;11.02;;
64903;SDS011;51401;48.882;12.598;2023-04-10T05:32:28;20.55;;;11.88;;
64903;SDS011;51401;48.882;12.598;2023-04-10T05:34:53;17.13;;;11.25;;
64903;SDS011;51401;48.882;12.598;2023-04-10T05:37:18;15.98;;;10.80;;
64903;SDS011;51401;48.882;12.598;2023-04-10T05:39:44;19.77;;;11.05;;
64903;SDS011;51401;48.882;12.598;2023-04-10T05:42:12;16.38;;;11.52;;
64903;SDS011;51401;48.882;12.598;2023-04-10T05:44:38;18.23;;;10.80;;
64903;SDS011;51401;48.882;12.598;2023-04-10T05:47:03;16.80;;;11.07;;
64903;SDS011;51401;48.882;12.598;2023-04-10T05:49:28;16.23;;;10.30;;
64903;SDS011;51401;48.882;12.598;2023-04-10T05:51:54;17.92;;;10.35;;
64903;SDS011;51401;48.882;12.598;2023-04-10T05:54:19;17.30;;;11.05;;
64903;SDS011;51401;48.882;12.598;2023-04-10T05:56:45;17.33;;;10.60;;
64903;SDS011;51401;48.882;12.598;2023-04-10T05:59:10;16.42;;;10.30;;
64903;SDS011;51401;48.882;12.598;2023-04-10T06:01:36;13.57;;;10.05;;
64903;SDS011;51401;48.882;12.598;2023-04-10T06:04:01;15.50;;;11.05;;
64903;SDS011;51401;48.882;12.598;2023-04-10T06:06:27;15.93;;;11.13;;
64903;SDS011;51401;48.882;12.598;2023-04-10T06:08:53;14.07;;;10.68;;
64903;SDS011;51401;48.882;12.598;2023-04-10T06:11:19;16.83;;;10.02;;
64903;SDS011;51401;48.882;12.598;2023-04-10T06:13:45;14.32;;;10.30;;
64903;SDS011;51401;48.882;12.598;2023-04-10T06:16:10;12.95;;;9.32;;
64903;SDS011;51401;48.882;12.598;2023-04-10T06:18:36;15.40;;;10.50;;
64903;SDS011;51401;48.882;12.598;2023-04-10T06:21:02;15.93;;;10.45;;
64903;SDS011;51401;48.882;12.598;2023-04-10T06:23:27;13.15;;;9.60;;
64903;SDS011;51401;48.882;12.598;2023-04-10T06:25:55;14.70;;;9.90;;
64903;SDS011;51401;48.882;12.598;2023-04-10T06:28:21;15.20;;;10.18;;
64903;SDS011;51401;48.882;12.598;2023-04-10T06:30:46;14.82;;;10.88;;
64903;SDS011;51401;48.882;12.598;2023-04-10T06:33:11;14.33;;;10.37;;
64903;SDS011;51401;48.882;12.598;2023-04-10T06:35:36;15.40;;;10.98;;
64903;SDS011;51401;48.882;12.598;2023-04-10T06:38:03;13.73;;;10.45;;
64903;SDS011;51401;48.882;12.598;2023-04-10T06:40:28;15.77;;;10.82;;
64903;SDS011;51401;48.882;12.598;2023-04-10T06:42:54;15.82;;;11.18;;
64903;SDS011;51401;48.882;12.598;2023-04-10T06:45:20;15.13;;;10.00;;
64903;SDS011;51401;48.882;12.598;2023-04-10T06:47:45;15.82;;;10.77;;
64903;SDS011;51401;48.882;12.598;2023-04-10T06:50:11;13.52;;;9.80;;
64903;SDS011;51401;48.882;12.598;2023-04-10T06:52:36;14.98;;;10.93;;
64903;SDS011;51401;48.882;12.598;2023-04-10T06:55:01;14.75;;;10.40;;
64903;SDS011;51401;48.882;12.598;2023-04-10T06:57:27;15.48;;;10.90;;
64903;SDS011;51401;48.882;12.598;2023-04-10T06:59:58;14.70;;;10.77;;
64903;SDS011;51401;48.882;12.598;2023-04-10T07:02:24;14.52;;;11.40;;
64903;SDS011;51401;48.882;12.598;2023-04-10T07:04:58;16.00;;;11.10;;
64903;SDS011;51401;48.882;12.598;2023-04-10T07:07:24;17.50;;;11.63;;
64903;SDS011;51401;48.882;12.598;2023-04-10T07:09:49;15.18;;;11.73;;
64903;SDS011;51401;48.882;12.598;2023-04-10T07:12:14;14.95;;;11.90;;
64903;SDS011;51401;48.882;12.598;2023-04-10T07:14:40;16.35;;;11.40;;
64903;SDS011;51401;48.882;12.598;2023-04-10T07:17:06;14.82;;;11.63;;
64903;SDS011;51401;48.882;12.598;2023-04-10T07:19:31;15.35;;;11.02;;
64903;SDS011;51401;48.882;12.598;2023-04-10T07:21:57;15.87;;;11.83;;
64903;SDS011;51401;48.882;12.598;2023-04-10T07:24:23;16.15;;;11.70;;
64903;SDS011;51401;48.882;12.598;2023-04-10T07:26:48;16.50;;;11.88;;
64903;SDS011;51401;48.882;12.598;2023-04-10T07:29:14;16.33;;;12.05;;
64903;SDS011;51401;48.882;12.598;2023-04-10T07:31:42;15.05;;;11.05;;
64903;SDS011;51401;48.882;12.598;2023-04-10T07:34:07;14.27;;;11.68;;
64903;SDS011;51401;48.882;12.598;2023-04-10T07:36:32;16.90;;;12.00;;
64903;SDS011;51401;48.882;12.598;2023-04-10T07:38:58;15.95;;;12.23;;
64903;SDS011;51401;48.882;12.598;2023-04-10T07:41:23;17.63;;;11.75;;
64903;SDS011;51401;48.882;12.598;2023-04-10T07:43:49;17.55;;;12.73;;
64903;SDS011;51401;48.882;12.598;2023-04-10T07:46:15;17.40;;;12.07;;
64903;SDS011;51401;48.882;12.598;2023-04-10T07:48:41;15.85;;;11.68;;
64903;SDS011;51401;48.882;12.598;2023-04-10T07:51:06;16.67;;;11.57;;
64903;SDS011;51401;48.882;12.598;2023-04-10T07:53:34;16.42;;;12.15;;
64903;SDS011;51401;48.882;12.598;2023-04-10T07:56:00;15.27;;;11.68;;
64903;SDS011;51401;48.882;12.598;2023-04-10T07:58:25;16.02;;;11.52;;
64903;SDS011;51401;48.882;12.598;2023-04-10T08:00:51;16.40;;;12.27;;
64903;SDS011;51401;48.882;12.598;2023-04-10T08:03:16;15.95;;;11.23;;
64903;SDS011;51401;48.882;12.598;2023-04-10T08:05:41;14.68;;;11.65;;
64903;SDS011;51401;48.882;12.598;2023-04-10T08:08:10;15.03;;;11.80;;
64903;SDS011;51401;48.882;12.598;2023-04-10T08:10:35;15.32;;;10.82;;
64903;SDS011;51401;48.882;12.598;2023-04-10T08:13:01;15.55;;;11.63;;
64903;SDS011;51401;48.882;12.598;2023-04-10T08:15:27;14.93;;;10.85;;
64903;SDS011;51401;48.882;12.598;2023-04-10T08:17:52;15.23;;;11.25;;
64903;SDS011;51401;48.882;12.598;2023-04-10T08:20:20;14.50;;;10.43;;
64903;SDS011;51401;48.882;12.598;2023-04-10T08:22:46;15.02;;;10.77;;
64903;SDS011;51401;48.882;12.598;2023-04-10T08:25:11;15.33;;;11.47;;
64903;SDS011;51401;48.882;12.598;2023-04-10T08:27:46;14.65;;;11.23;;
64903;SDS011;51401;48.882;12.598;2023-04-10T08:30:36;14.70;;;10.93;;
64903;SDS011;51401;48.882;12.598;2023-04-10T08:33:02;12.85;;;10.57;;
64903;SDS011;51401;48.882;12.598;2023-04-10T08:35:27;12.98;;;10.35;;
64903;SDS011;51401;48.882;12.598;2023-04-10T08:38:11;13.57;;;9.70;;
64903;SDS011;51401;48.882;12.598;2023-04-10T08:40:39;14.52;;;10.65;;
64903;SDS011;51401;48.882;12.598;2023-04-10T08:43:04;14.48;;;9.70;;
64903;SDS011;51401;48.882;12.598;2023-04-10T08:45:30;14.73;;;10.80;;
64903;SDS011;51401;48.882;12.598;2023-04-10T08:47:56;13.93;;;10.50;;
64903;SDS011;51401;48.882;12.598;2023-04-10T08:50:22;13.48;;;10.23;;
64903;SDS011;51401;48.882;12.598;2023-04-10T08:52:48;13.38;;;10.05;;
64903;SDS011;51401;48.882;12.598;2023-04-10T08:55:16;13.77;;;9.70;;
64903;SDS011;51401;48.882;12.598;2023-04-10T08:57:42;14.68;;;10.32;;
64903;SDS011;51401;48.882;12.598;2023-04-10T09:00:08;14.88;;;10.45;;
64903;SDS011;51401;48.882;12.598;2023-04-10T09:02:36;14.15;;;10.48;;
64903;SDS011;51401;48.882;12.598;2023-04-10T09:05:02;14.27;;;9.82;;
64903;SDS011;51401;48.882;12.598;2023-04-10T09:07:28;14.32;;;9.40;;
64903;SDS011;51401;48.882;12.598;2023-04-10T09:09:53;14.98;;;10.15;;
64903;SDS011;51401;48.882;12.598;2023-04-10T09:12:20;15.25;;;10.65;;
64903;SDS011;51401;48.882;12.598;2023-04-10T09:14:46;16.15;;;10.43;;
64903;SDS011;51401;48.882;12.598;2023-04-10T09:17:26;16.45;;;10.90;;
64903;SDS011;51401;48.882;12.598;2023-04-10T09:19:54;14.73;;;10.98;;
64903;SDS011;51401;48.882;12.598;2023-04-10T09:22:30;12.77;;;9.07;;
64903;SDS011;51401;48.882;12.598;2023-04-10T09:24:59;14.52;;;10.10;;
64903;SDS011;51401;48.882;12.598;2023-04-10T09:27:29;14.77;;;10.60;;
64903;SDS011;51401;48.882;12.598;2023-04-10T09:30:03;11.63;;;8.45;;
64903;SDS011;51401;48.882;12.598;2023-04-10T09:32:44;14.20;;;10.00;;
64903;SDS011;51401;48.882;12.598;2023-04-10T09:35:11;15.02;;;9.98;;
64903;SDS011;51401;48.882;12.598;2023-04-10T09:37:37;14.00;;;9.88;;
64903;SDS011;51401;48.882;12.598;2023-04-10T09:40:05;12.20;;;9.50;;
64903;SDS011;51401;48.882;12.598;2023-04-10T09:42:43;13.55;;;9.95;;
64903;SDS011;51401;48.882;12.598;2023-04-10T09:45:11;12.02;;;9.05;;
64903;SDS011;51401;48.882;12.598;2023-04-10T09:47:36;12.68;;;9.02;;
64903;SDS011;51401;48.882;12.598;2023-04-10T09:50:02;12.98;;;9.55;;
64903;SDS011;51401;48.882;12.598;2023-04-10T09:54:54;11.88;;;8.73;;
64903;SDS011;51401;48.882;12.598;2023-04-10T09:57:26;11.77;;;9.13;;
64903;SDS011;51401;48.882;12.598;2023-04-10T10:00:02;10.98;;;8.38;;
64903;SDS011;51401;48.882;12.598;2023-04-10T10:02:31;11.80;;;8.60;;
64903;SDS011;51401;48.882;12.598;2023-04-10T10:05:01;12.05;;;8.38;;
64903;SDS011;51401;48.882;12.598;2023-04-10T10:07:28;12.23;;;8.45;;
64903;SDS011;51401;48.882;12.598;2023-04-10T10:09:54;14.35;;;10.00;;
64903;SDS011;51401;48.882;12.598;2023-04-10T10:12:25;12.77;;;9.10;;
64903;SDS011;51401;48.882;12.598;2023-04-10T10:17:33;11.57;;;8.05;;
64903;SDS011;51401;48.882;12.598;2023-04-10T10:20:07;11.48;;;7.03;;
64903;SDS011;51401;48.882;12.598;2023-04-10T10:22:34;12.48;;;8.25;;
64903;SDS011;51401;48.882;12.598;2023-04-10T10:25:01;11.73;;;8.00;;
64903;SDS011;51401;48.882;12.598;2023-04-10T10:27:30;10.48;;;6.75;;
64903;SDS011;51401;48.882;12.598;2023-04-10T10:30:00;11.77;;;8.30;;
64903;SDS011;51401;48.882;12.598;2023-04-10T10:32:28;9.68;;;7.75;;
64903;SDS011;51401;48.882;12.598;2023-04-10T10:34:54;10.10;;;7.65;;
64903;SDS011;51401;48.882;12.598;2023-04-10T10:37:21;8.23;;;6.93;;
64903;SDS011;51401;48.882;12.598;2023-04-10T10:45:18;8.70;;;6.47;;
64903;SDS011;51401;48.882;12.598;2023-04-10T10:50:20;9.55;;;7.15;;
64903;SDS011;51401;48.882;12.598;2023-04-10T10:52:49;9.32;;;7.35;;
64903;SDS011;51401;48.882;12.598;2023-04-10T10:55:29;10.02;;;7.45;;
64903;SDS011;51401;48.882;12.598;2023-04-10T10:58:05;9.82;;;7.47;;
64903;SDS011;51401;48.882;12.598;2023-04-10T11:05:48;6.25;;;5.00;;
64903;SDS011;51401;48.882;12.598;2023-04-10T11:13:38;5.95;;;4.80;;
64903;SDS011;51401;48.882;12.598;2023-04-10T11:19:17;8.30;;;5.20;;
64903;SDS011;51401;48.882;12.598;2023-04-10T11:24:56;5.65;;;4.55;;
64903;SDS011;51401;48.882;12.598;2023-04-10T11:27:38;5.85;;;4.07;;
64903;SDS011;51401;48.882;12.598;2023-04-10T11:30:34;6.50;;;5.10;;
64903;SDS011;51401;48.882;12.598;2023-04-10T11:33:01;8.35;;;5.50;;
64903;SDS011;51401;48.882;12.598;2023-04-10T11:35:27;7.57;;;5.75;;
64903;SDS011;51401;48.882;12.598;2023-04-10T11:38:08;6.82;;;4.88;;
64903;SDS011;51401;48.882;12.598;2023-04-10T11:40:33;7.28;;;4.95;;
64903;SDS011;51401;48.882;12.598;2023-04-10T11:43:12;7.88;;;5.43;;
64903;SDS011;51401;48.882;12.598;2023-04-10T11:45:38;7.05;;;5.03;;
64903;SDS011;51401;48.882;12.598;2023-04-10T11:48:03;7.27;;;5.17;;
64903;SDS011;51401;48.882;12.598;2023-04-10T11:50:28;7.07;;;5.30;;
64903;SDS011;51401;48.882;12.598;2023-04-10T11:52:56;6.63;;;5.20;;
64903;SDS011;51401;48.882;12.598;2023-04-10T11:55:43;4.78;;;3.60;;
64903;SDS011;51401;48.882;12.598;2023-04-10T11:58:22;5.68;;;4.40;;
64903;SDS011;51401;48.882;12.598;2023-04-10T12:00:58;5.22;;;4.25;;
64903;SDS011;51401;48.882;12.598;2023-04-10T12:03:31;6.05;;;4.43;;
64903;SDS011;51401;48.882;12.598;2023-04-10T12:05:58;5.57;;;4.15;;
64903;SDS011;51401;48.882;12.598;2023-04-10T12:08:33;5.03;;;3.80;;
64903;SDS011;51401;48.882;12.598;2023-04-10T12:10:59;5.43;;;4.20;;
64903;SDS011;51401;48.882;12.598;2023-04-10T12:13:26;4.60;;;3.70;;
64903;SDS011;51401;48.882;12.598;2023-04-10T12:15:52;4.45;;;3.58;;
64903;SDS011;51401;48.882;12.598;2023-04-10T12:18:19;5.80;;;4.50;;
64903;SDS011;51401;48.882;12.598;2023-04-10T12:20:45;6.50;;;4.82;;
64903;SDS011;51401;48.882;12.598;2023-04-10T12:23:11;4.90;;;4.05;;
64903;SDS011;51401;48.882;12.598;2023-04-10T12:25:37;5.72;;;4.30;;
64903;SDS011;51401;48.882;12.598;2023-04-10T12:28:03;6.43;;;4.22;;
64903;SDS011;51401;48.882;12.598;2023-04-10T12:30:28;6.05;;;4.40;;
64903;SDS011;51401;48.882;12.598;2023-04-10T12:32:54;4.22;;;3.75;;
64903;SDS011;51401;48.882;12.598;2023-04-10T12:35:19;4.78;;;4.00;;
64903;SDS011;51401;48.882;12.598;2023-04-10T12:37:47;4.43;;;3.67;;
64903;SDS011;51401;48.882;12.598;2023-04-10T12:40:14;5.78;;;3.80;;
64903;SDS011;51401;48.882;12.598;2023-04-10T12:42:42;4.00;;;3.53;;
64903;SDS011;51401;48.882;12.598;2023-04-10T12:45:16;4.70;;;3.55;;
64903;SDS011;51401;48.882;12.598;2023-04-10T12:47:42;4.28;;;3.47;;
64903;SDS011;51401;48.882;12.598;2023-04-10T12:50:11;4.75;;;3.70;;
64903;SDS011;51401;48.882;12.598;2023-04-10T12:52:39;4.78;;;3.28;;
64903;SDS011;51401;48.882;12.598;2023-04-10T12:55:18;5.72;;;3.75;;
64903;SDS011;51401;48.882;12.598;2023-04-10T12:57:48;5.28;;;3.85;;
64903;SDS011;51401;48.882;12.598;2023-04-10T13:00:16;4.80;;;3.80;;
64903;SDS011;51401;48.882;12.598;2023-04-10T13:02:43;4.10;;;3.70;;
64903;SDS011;51401;48.882;12.598;2023-04-10T13:05:10;4.75;;;3.75;;
64903;SDS011;51401;48.882;12.598;2023-04-10T13:07:36;4.07;;;3.38;;
64903;SDS011;51401;48.882;12.598;2023-04-10T13:10:01;4.30;;;3.58;;
64903;SDS011;51401;48.882;12.598;2023-04-10T13:12:28;4.63;;;3.88;;
64903;SDS011;51401;48.882;12.598;2023-04-10T13:14:54;6.15;;;4.50;;
64903;SDS011;51401;48.882;12.598;2023-04-10T13:17:20;5.85;;;4.18;;
64903;SDS011;51401;48.882;12.598;2023-04-10T13:19:46;8.05;;;3.88;;
64903;SDS011;51401;48.882;12.598;2023-04-10T13:22:11;4.50;;;3.63;;
64903;SDS011;51401;48.882;12.598;2023-04-10T13:24:37;6.13;;;4.10;;
64903;SDS011;51401;48.882;12.598;2023-04-10T13:27:02;4.10;;;3.60;;
64903;SDS011;51401;48.882;12.598;2023-04-10T13:29:28;4.75;;;3.80;;
64903;SDS011;51401;48.882;12.598;2023-04-10T13:32:04;5.90;;;4.10;;
64903;SDS011;51401;48.882;12.598;2023-04-10T13:34:30;5.53;;;4.00;;
64903;SDS011;51401;48.882;12.598;2023-04-10T13:36:56;4.72;;;3.53;;
64903;SDS011;51401;48.882;12.598;2023-04-10T13:39:21;5.33;;;3.43;;
64903;SDS011;51401;48.882;12.598;2023-04-10T13:41:47;5.65;;;4.07;;
64903;SDS011;51401;48.882;12.598;2023-04-10T13:44:12;5.38;;;4.00;;
64903;SDS011;51401;48.882;12.598;2023-04-10T13:46:37;4.73;;;3.50;;
64903;SDS011;51401;48.882;12.598;2023-04-10T13:49:03;4.20;;;3.78;;
64903;SDS011;51401;48.882;12.598;2023-04-10T13:51:28;4.23;;;3.50;;
64903;SDS011;51401;48.882;12.598;2023-04-10T13:53:54;4.65;;;3.92;;
64903;SDS011;51401;48.882;12.598;2023-04-10T13:56:19;5.15;;;4.05;;
64903;SDS011;51401;48.882;12.598;2023-04-10T13:58:45;5.30;;;3.95;;
64903;SDS011;51401;48.882;12.598;2023-04-10T14:01:10;4.32;;;3.40;;
64903;SDS011;51401;48.882;12.598;2023-04-10T14:03:36;4.18;;;3.72;;
64903;SDS011;51401;48.882;12.598;2023-04-10T14:06:01;5.18;;;4.13;;
64903;SDS011;51401;48.882;12.598;2023-04-10T14:08:27;5.45;;;3.63;;
64903;SDS011;51401;48.882;12.598;2023-04-10T14:10:52;5.27;;;3.63;;
64903;SDS011;51401;48.882;12.598;2023-04-10T14:13:18;4.25;;;3.55;;
64903;SDS011;51401;48.882;12.598;2023-04-10T14:15:44;5.18;;;3.50;;
64903;SDS011;51401;48.882;12.598;2023-04-10T14:18:09;4.25;;;3.67;;
64903;SDS011;51401;48.882;12.598;2023-04-10T14:20:35;4.60;;;3.40;;
64903;SDS011;51401;48.882;12.598;2023-04-10T14:23:00;6.05;;;3.63;;
64903;SDS011;51401;48.882;12.598;2023-04-10T14:25:25;4.68;;;3.53;;
64903;SDS011;51401;48.882;12.598;2023-04-10T14:27:51;4.90;;;3.72;;
64903;SDS011;51401;48.882;12.598;2023-04-10T14:30:16;4.47;;;3.50;;
64903;SDS011;51401;48.882;12.598;2023-04-10T14:32:42;4.30;;;3.47;;
64903;SDS011;51401;48.882;12.598;2023-04-10T14:35:10;4.35;;;3.42;;
64903;SDS011;51401;48.882;12.598;2023-04-10T14:37:36;4.20;;;3.53;;
64903;SDS011;51401;48.882;12.598;2023-04-10T14:40:02;4.75;;;3.15;;
64903;SDS011;51401;48.882;12.598;2023-04-10T14:42:28;4.20;;;3.20;;
64903;SDS011;51401;48.882;12.598;2023-04-10T14:44:54;4.75;;;3.90;;
64903;SDS011;51401;48.882;12.598;2023-04-10T14:47:19;4.72;;;3.58;;
64903;SDS011;51401;48.882;12.598;2023-04-10T14:49:44;5.38;;;3.60;;
64903;SDS011;51401;48.882;12.598;2023-04-10T14:52:10;4.87;;;3.80;;
64903;SDS011;51401;48.882;12.598;2023-04-10T14:54:35;4.70;;;3.65;;
64903;SDS011;51401;48.882;12.598;2023-04-10T14:57:00;6.13;;;3.97;;